Time;durP1;ratioP1;P1;durP2;ratioP2;P2;SDS_P1;SDS_P2;PMS_P1;PMS_P2;Temp;Humidity;BMP_temperature;BMP_pressure;BME280_temperature;BME280_humidity;BME280_pressure;Samples;Min_cycle;Max_cycle;Signal;HPM_P1;HPM_P2
2023/09/26 00:01:33;;;;;;;17.40;3.30;;;21.10;99.90;;;;;;5053040;28;20201;-77
2023/09/26 00:04:04;;;;;;;12.38;3.00;;;21.10;99.90;;;;;;5055199;28;20190;-77
2023/09/26 00:06:34;;;;;;;13.57;2.70;;;21.00;99.90;;;;;;5048048;28;20259;-77
2023/09/26 00:09:08;;;;;;;17.80;3.53;;;20.90;99.90;;;;;;5046705;28;20201;-78
2023/09/26 00:11:39;;;;;;;18.73;3.50;;;20.60;99.90;;;;;;5045741;28;20229;-77
2023/09/26 00:14:10;;;;;;;15.25;2.80;;;20.70;99.90;;;;;;5034398;28;20248;-77
2023/09/26 00:16:41;;;;;;;11.13;2.67;;;20.90;99.90;;;;;;5037685;28;20224;-76
2023/09/26 00:19:12;;;;;;;14.40;3.05;;;21.00;99.90;;;;;;5036725;28;20228;-79
2023/09/26 00:21:43;;;;;;;18.40;3.13;;;21.10;99.90;;;;;;5038019;28;20209;-78
2023/09/26 00:24:16;;;;;;;15.75;3.03;;;21.20;99.90;;;;;;5044238;28;20198;-76
2023/09/26 00:26:46;;;;;;;18.80;3.08;;;21.30;99.90;;;;;;5044300;28;20232;-77
2023/09/26 00:29:17;;;;;;;18.42;2.80;;;21.30;99.90;;;;;;5048920;28;20204;-77
2023/09/26 00:31:48;;;;;;;10.63;3.65;;;21.40;99.90;;;;;;5054051;28;20221;-77
2023/09/26 00:34:20;;;;;;;13.93;3.35;;;21.50;99.90;;;;;;5052737;28;20219;-77
2023/09/26 00:36:51;;;;;;;8.35;2.42;;;21.50;99.90;;;;;;5036158;28;20210;-77
2023/09/26 00:39:24;;;;;;;11.88;3.53;;;21.60;99.90;;;;;;5034128;28;20305;-78
2023/09/26 00:41:55;;;;;;;10.77;2.42;;;21.50;99.90;;;;;;5041034;28;20189;-77
2023/09/26 00:44:25;;;;;;;13.40;2.83;;;21.40;99.90;;;;;;5053631;28;20193;-77
2023/09/26 00:46:56;;;;;;;15.55;2.95;;;21.60;99.90;;;;;;5049884;28;20559;-76
2023/09/26 00:49:28;;;;;;;11.68;2.90;;;21.70;99.90;;;;;;5037614;28;20203;-77
2023/09/26 00:52:00;;;;;;;14.18;3.35;;;21.70;99.90;;;;;;5049992;28;20185;-77
2023/09/26 00:54:33;;;;;;;17.02;3.25;;;21.70;99.90;;;;;;5036145;28;20657;-76
2023/09/26 00:57:05;;;;;;;14.45;2.80;;;21.70;99.90;;;;;;5033681;28;20191;-78
2023/09/26 00:59:37;;;;;;;10.63;2.70;;;21.60;99.90;;;;;;5043925;28;20239;-77
2023/09/26 01:02:08;;;;;;;11.20;2.78;;;21.50;99.90;;;;;;5053757;28;20194;-77
2023/09/26 01:04:39;;;;;;;7.97;2.78;;;21.40;99.90;;;;;;5053659;28;20198;-77
2023/09/26 01:07:10;;;;;;;12.48;2.45;;;21.50;99.90;;;;;;5053358;28;20249;-77
2023/09/26 01:09:43;;;;;;;9.95;2.60;;;21.50;99.90;;;;;;5036076;28;20190;-77
2023/09/26 01:12:14;;;;;;;16.20;3.00;;;21.50;99.90;;;;;;5033790;28;20190;-77
2023/09/26 01:14:45;;;;;;;12.25;2.80;;;21.40;99.90;;;;;;5033612;28;20544;-77
2023/09/26 01:17:15;;;;;;;14.88;2.97;;;21.20;99.90;;;;;;5033584;28;20198;-78
2023/09/26 01:19:46;;;;;;;14.50;3.33;;;21.10;99.90;;;;;;5033473;28;20308;-77
2023/09/26 01:22:19;;;;;;;17.50;3.10;;;20.90;99.90;;;;;;5033311;28;20190;-77
2023/09/26 01:24:52;;;;;;;18.73;3.10;;;20.70;99.90;;;;;;5033493;28;20198;-77
2023/09/26 01:27:23;;;;;;;14.60;3.15;;;20.50;99.90;;;;;;5033368;28;20218;-76
2023/09/26 01:29:54;;;;;;;16.33;3.60;;;20.50;99.90;;;;;;5033376;28;20196;-76
2023/09/26 01:32:26;;;;;;;17.50;3.17;;;20.60;99.90;;;;;;5033314;28;20190;-76
2023/09/26 01:34:57;;;;;;;14.05;3.38;;;20.60;99.90;;;;;;5033173;28;20646;-77
2023/09/26 01:37:27;;;;;;;14.40;2.90;;;20.70;99.90;;;;;;5033356;28;20560;-76
2023/09/26 01:40:00;;;;;;;16.45;2.85;;;20.80;99.90;;;;;;5033240;28;20586;-75
2023/09/26 01:42:31;;;;;;;13.70;3.33;;;20.70;99.90;;;;;;5033660;28;20224;-75
2023/09/26 01:45:02;;;;;;;19.48;3.05;;;20.70;99.90;;;;;;5033312;28;20288;-75
2023/09/26 01:47:42;;;;;;;11.02;2.92;;;20.60;99.90;;;;;;5032837;28;20549;-73
2023/09/26 01:50:13;;;;;;;15.27;3.28;;;20.60;99.90;;;;;;5031899;28;20213;-73
2023/09/26 01:52:44;;;;;;;12.18;2.80;;;20.50;99.90;;;;;;5033218;28;20241;-74
2023/09/26 01:55:19;;;;;;;13.43;2.85;;;20.50;99.90;;;;;;5033586;28;20237;-73
2023/09/26 01:57:50;;;;;;;15.02;3.03;;;20.50;99.90;;;;;;5036950;28;20240;-75
2023/09/26 02:00:22;;;;;;;12.90;2.70;;;20.50;99.90;;;;;;5044359;28;20240;-74
2023/09/26 02:02:53;;;;;;;11.05;2.55;;;20.60;99.90;;;;;;5040621;28;20285;-76
2023/09/26 02:05:24;;;;;;;13.73;3.13;;;20.70;99.90;;;;;;5045041;28;20187;-72
2023/09/26 02:07:55;;;;;;;14.30;3.13;;;20.60;99.90;;;;;;5043621;28;20198;-74
2023/09/26 02:10:28;;;;;;;11.55;2.88;;;20.60;99.90;;;;;;5046245;28;20200;-73
2023/09/26 02:12:59;;;;;;;14.90;2.83;;;20.50;99.90;;;;;;5049862;28;20189;-73
2023/09/26 02:15:30;;;;;;;14.32;2.95;;;20.50;99.90;;;;;;5044377;28;20194;-72
2023/09/26 02:18:00;;;;;;;13.38;2.97;;;20.50;99.90;;;;;;5040391;28;20202;-73
2023/09/26 02:20:31;;;;;;;10.50;2.75;;;20.50;99.90;;;;;;5042937;28;20256;-74
2023/09/26 02:23:02;;;;;;;13.63;2.72;;;20.40;99.90;;;;;;5054356;28;20208;-74
2023/09/26 02:25:35;;;;;;;13.60;2.67;;;20.30;99.90;;;;;;5055497;28;20225;-72
2023/09/26 02:28:06;;;;;;;12.80;2.92;;;20.30;99.90;;;;;;5055683;28;20247;-74
2023/09/26 02:30:37;;;;;;;11.25;2.80;;;20.20;99.90;;;;;;5041995;28;20787;-73
2023/09/26 02:33:07;;;;;;;12.27;2.70;;;20.20;99.90;;;;;;5047649;28;20213;-73
2023/09/26 02:35:38;;;;;;;14.20;2.88;;;20.20;99.90;;;;;;5045745;28;20204;-74
2023/09/26 02:38:10;;;;;;;13.15;3.22;;;20.10;99.90;;;;;;5040244;28;20244;-73
2023/09/26 02:40:43;;;;;;;18.33;3.50;;;20.20;99.90;;;;;;5034603;28;20218;-73
2023/09/26 02:43:14;;;;;;;16.05;2.97;;;20.20;99.90;;;;;;5050493;28;20194;-74
2023/09/26 02:45:45;;;;;;;13.93;3.08;;;20.20;99.90;;;;;;5053617;28;20285;-73
2023/09/26 02:48:15;;;;;;;13.75;2.95;;;20.10;99.90;;;;;;5049807;28;20661;-73
2023/09/26 02:50:47;;;;;;;10.40;3.33;;;20.00;99.90;;;;;;5051207;28;20193;-74
2023/09/26 02:53:17;;;;;;;15.00;2.97;;;20.00;99.90;;;;;;5046680;28;20195;-74
2023/09/26 02:55:50;;;;;;;16.15;3.45;;;19.90;99.90;;;;;;5055167;28;20276;-74
2023/09/26 02:58:21;;;;;;;12.70;2.88;;;20.00;99.90;;;;;;5057239;28;20198;-73
2023/09/26 03:00:52;;;;;;;11.50;2.80;;;20.20;99.90;;;;;;5039791;28;20221;-73
2023/09/26 03:03:22;;;;;;;11.73;2.70;;;20.30;99.90;;;;;;5047339;28;20206;-73
2023/09/26 03:05:54;;;;;;;10.02;2.90;;;20.50;99.90;;;;;;5037404;28;20229;-73
2023/09/26 03:08:24;;;;;;;14.00;2.90;;;20.60;99.90;;;;;;5041320;28;20280;-73
2023/09/26 03:11:02;;;;;;;16.05;3.00;;;20.80;99.90;;;;;;5041278;28;20673;-73
2023/09/26 03:13:34;;;;;;;12.27;2.88;;;20.80;99.90;;;;;;5045737;28;20201;-72
2023/09/26 03:16:08;;;;;;;12.57;2.75;;;20.70;99.90;;;;;;5036786;28;20570;-73
2023/09/26 03:18:39;;;;;;;15.23;3.75;;;20.60;99.90;;;;;;5047656;28;20194;-73
2023/09/26 03:21:11;;;;;;;14.13;2.67;;;20.60;99.90;;;;;;5040325;28;20217;-73
2023/09/26 03:23:42;;;;;;;10.02;2.55;;;20.60;99.90;;;;;;5051783;28;20204;-73
2023/09/26 03:26:17;;;;;;;13.63;2.65;;;20.60;99.90;;;;;;5042764;28;20237;-74
2023/09/26 03:28:48;;;;;;;11.63;2.92;;;20.50;99.90;;;;;;5052902;28;20661;-73
2023/09/26 03:31:19;;;;;;;9.43;2.78;;;20.50;99.90;;;;;;5039827;28;20603;-72
2023/09/26 03:33:51;;;;;;;16.67;2.72;;;20.50;99.90;;;;;;5041851;28;20200;-75
2023/09/26 03:36:22;;;;;;;10.57;2.50;;;20.40;99.90;;;;;;5046077;28;20248;-73
2023/09/26 03:38:54;;;;;;;13.25;3.15;;;20.40;99.90;;;;;;5043923;28;20209;-73
2023/09/26 03:41:26;;;;;;;11.48;3.28;;;20.50;99.90;;;;;;5044413;28;20222;-73
2023/09/26 03:43:57;;;;;;;11.75;2.75;;;20.50;99.90;;;;;;5047417;28;20649;-73
2023/09/26 03:46:28;;;;;;;12.82;2.55;;;20.50;99.90;;;;;;5041443;28;20194;-75
2023/09/26 03:48:58;;;;;;;13.00;2.90;;;20.50;99.90;;;;;;5043672;28;20206;-73
2023/09/26 03:51:30;;;;;;;12.18;2.80;;;20.50;99.90;;;;;;5035914;28;20277;-74
2023/09/26 03:54:00;;;;;;;13.85;2.92;;;20.40;99.90;;;;;;5053298;28;20312;-73
2023/09/26 03:56:33;;;;;;;13.80;2.53;;;20.50;99.90;;;;;;5052180;28;20228;-76
2023/09/26 03:59:04;;;;;;;10.10;2.65;;;20.50;99.90;;;;;;5049455;28;20209;-73
2023/09/26 04:01:34;;;;;;;15.10;2.72;;;20.50;99.90;;;;;;5052476;28;20720;-74
2023/09/26 04:04:07;;;;;;;13.82;2.75;;;20.50;99.90;;;;;;5049624;28;20198;-73
2023/09/26 04:06:38;;;;;;;13.95;2.80;;;20.50;99.90;;;;;;5041933;28;20315;-74
2023/09/26 04:09:09;;;;;;;10.20;3.10;;;20.60;99.90;;;;;;5038765;28;20213;-76
2023/09/26 04:11:42;;;;;;;13.85;2.95;;;20.70;99.90;;;;;;5040008;28;20208;-73
2023/09/26 04:14:12;;;;;;;15.20;3.45;;;20.70;99.90;;;;;;5048706;28;20685;-74
2023/09/26 04:16:43;;;;;;;13.57;2.90;;;20.70;99.90;;;;;;5048056;28;20194;-76
2023/09/26 04:19:14;;;;;;;13.48;2.97;;;20.70;99.90;;;;;;5045404;28;20206;-74
2023/09/26 04:21:45;;;;;;;8.60;2.47;;;20.70;99.90;;;;;;5044614;28;20217;-74
2023/09/26 04:24:15;;;;;;;14.57;3.47;;;20.70;99.90;;;;;;5036615;28;20585;-72
2023/09/26 04:26:48;;;;;;;14.77;2.58;;;20.60;99.90;;;;;;5037343;28;20650;-74
2023/09/26 04:29:20;;;;;;;12.48;2.60;;;20.60;99.90;;;;;;5039882;28;20189;-75
2023/09/26 04:31:50;;;;;;;10.32;2.50;;;20.60;99.90;;;;;;5045897;28;20202;-74
2023/09/26 04:34:21;;;;;;;10.20;2.40;;;20.60;99.90;;;;;;5047031;28;20205;-75
2023/09/26 04:36:52;;;;;;;12.70;2.53;;;20.50;99.90;;;;;;5041970;28;20353;-73
2023/09/26 04:39:23;;;;;;;7.93;2.40;;;20.40;99.90;;;;;;5052048;28;20570;-72
2023/09/26 04:41:55;;;;;;;8.65;2.53;;;20.50;99.90;;;;;;5051546;28;20213;-74
2023/09/26 04:44:26;;;;;;;10.63;2.70;;;20.50;99.90;;;;;;5043260;28;20213;-74
2023/09/26 04:46:57;;;;;;;8.77;2.40;;;20.70;99.90;;;;;;5051028;28;20587;-73
2023/09/26 04:49:28;;;;;;;7.82;2.45;;;20.70;99.90;;;;;;5048705;28;20206;-72
2023/09/26 04:51:59;;;;;;;12.20;3.03;;;20.80;99.90;;;;;;5034136;28;20221;-72
2023/09/26 04:54:30;;;;;;;10.98;2.42;;;20.80;99.90;;;;;;5049405;28;20672;-74
2023/09/26 04:57:03;;;;;;;9.20;2.60;;;20.70;99.90;;;;;;5062705;28;20190;-73
2023/09/26 04:59:34;;;;;;;9.90;2.30;;;20.60;99.90;;;;;;5055175;28;20193;-75
2023/09/26 05:02:05;;;;;;;14.50;2.58;;;20.70;99.90;;;;;;5053296;28;20688;-74
2023/09/26 05:04:36;;;;;;;10.02;2.42;;;20.60;99.90;;;;;;5049095;28;21021;-72
2023/09/26 05:07:07;;;;;;;14.02;2.95;;;20.70;99.90;;;;;;5052205;28;20597;-73
2023/09/26 05:09:38;;;;;;;12.73;2.53;;;20.70;99.90;;;;;;5053268;28;20570;-73
2023/09/26 05:12:11;;;;;;;11.93;2.53;;;20.70;99.90;;;;;;5053076;28;20197;-73
2023/09/26 05:14:42;;;;;;;11.23;2.83;;;20.70;99.90;;;;;;5040899;28;20197;-73
2023/09/26 05:17:13;;;;;;;13.20;2.50;;;20.70;99.90;;;;;;5038452;28;20221;-74
2023/09/26 05:19:44;;;;;;;8.63;2.70;;;20.60;99.90;;;;;;5042069;28;20197;-74
2023/09/26 05:22:14;;;;;;;11.18;2.65;;;20.70;99.90;;;;;;5050810;28;20209;-73
2023/09/26 05:24:45;;;;;;;10.73;2.88;;;20.70;99.90;;;;;;5061697;28;20226;-76
2023/09/26 05:27:18;;;;;;;10.00;2.15;;;20.70;99.90;;;;;;5042484;28;20201;-73
2023/09/26 05:29:49;;;;;;;10.25;2.65;;;20.60;99.90;;;;;;5052565;28;20200;-72
2023/09/26 05:32:20;;;;;;;10.88;2.63;;;20.60;99.90;;;;;;5045026;28;20213;-73
2023/09/26 05:34:51;;;;;;;8.85;2.47;;;20.60;99.90;;;;;;5047124;28;20197;-73
2023/09/26 05:37:22;;;;;;;14.55;2.40;;;20.60;99.90;;;;;;5033417;28;20277;-73
2023/09/26 05:39:53;;;;;;;11.48;2.45;;;20.60;99.90;;;;;;5046321;28;20550;-73
2023/09/26 05:42:26;;;;;;;11.65;2.30;;;20.60;99.90;;;;;;5052646;28;20677;-74
2023/09/26 05:44:57;;;;;;;8.02;2.20;;;20.60;99.90;;;;;;5052804;28;20205;-72
2023/09/26 05:47:28;;;;;;;8.82;2.28;;;20.60;99.90;;;;;;5062520;28;20263;-72
2023/09/26 05:50:00;;;;;;;9.52;2.30;;;20.40;99.90;;;;;;5039437;28;20200;-72
2023/09/26 05:52:31;;;;;;;7.07;1.85;;;20.40;99.90;;;;;;5045462;28;20197;-73
2023/09/26 05:55:03;;;;;;;8.50;2.40;;;20.30;99.90;;;;;;5052957;28;20209;-73
2023/09/26 05:57:36;;;;;;;8.25;2.00;;;20.30;99.90;;;;;;5046065;28;20243;-73
2023/09/26 06:00:12;;;;;;;9.57;2.35;;;20.40;99.90;;;;;;5044679;28;20202;-73
2023/09/26 06:02:43;;;;;;;8.30;2.08;;;20.40;99.90;;;;;;5040911;28;20224;-72
2023/09/26 06:05:12;;;;;;;7.20;1.98;;;20.30;99.90;;;;;;5036561;28;20209;-74
2023/09/26 06:07:43;;;;;;;6.40;2.20;;;20.20;99.90;;;;;;5042228;28;20396;-75
2023/09/26 06:10:15;;;;;;;10.60;2.15;;;20.10;99.90;;;;;;5052027;28;20209;-72
2023/09/26 06:12:47;;;;;;;8.63;2.22;;;20.00;99.90;;;;;;5040195;28;20209;-74
2023/09/26 06:15:18;;;;;;;8.93;2.42;;;19.80;99.90;;;;;;5040081;28;20201;-74
2023/09/26 06:17:49;;;;;;;6.72;2.10;;;19.70;99.90;;;;;;5052614;28;20204;-76
2023/09/26 06:20:20;;;;;;;6.50;2.25;;;19.60;99.90;;;;;;5052593;28;20204;-73
2023/09/26 06:22:51;;;;;;;7.78;2.25;;;19.60;99.90;;;;;;5039247;28;20277;-73
2023/09/26 06:25:22;;;;;;;9.98;2.60;;;19.60;99.90;;;;;;5044909;28;20225;-74
2023/09/26 06:27:55;;;;;;;9.02;2.35;;;19.60;99.90;;;;;;5041687;28;20539;-75
2023/09/26 06:30:26;;;;;;;9.27;2.35;;;19.60;99.90;;;;;;5044802;28;20628;-72
2023/09/26 06:32:57;;;;;;;12.57;3.08;;;19.50;99.90;;;;;;5048628;28;20202;-72
2023/09/26 06:35:28;;;;;;;9.02;2.20;;;19.40;99.90;;;;;;5050874;28;20670;-73
2023/09/26 06:37:58;;;;;;;10.82;2.30;;;19.40;99.90;;;;;;5051405;28;20208;-73
2023/09/26 06:40:29;;;;;;;9.45;2.60;;;19.40;99.90;;;;;;5050474;28;20202;-75
2023/09/26 06:43:02;;;;;;;7.28;2.35;;;19.40;99.90;;;;;;5048473;28;20201;-73
2023/09/26 06:45:33;;;;;;;8.77;2.28;;;19.40;99.90;;;;;;5051762;28;20197;-72
2023/09/26 06:48:05;;;;;;;6.60;2.30;;;19.30;99.90;;;;;;5055032;28;20573;-73
2023/09/26 06:50:35;;;;;;;8.63;2.35;;;19.30;99.90;;;;;;5042013;28;20617;-74
2023/09/26 06:53:07;;;;;;;8.43;2.38;;;19.00;99.90;;;;;;5044522;28;20202;-73
2023/09/26 06:55:39;;;;;;;9.88;2.67;;;19.20;99.90;;;;;;5044411;28;20186;-73
2023/09/26 06:58:12;;;;;;;7.00;2.42;;;19.20;99.90;;;;;;5038043;28;20190;-72
2023/09/26 07:00:43;;;;;;;7.82;2.25;;;19.20;99.90;;;;;;5036347;28;20217;-72
2023/09/26 07:03:14;;;;;;;10.05;2.33;;;19.20;99.90;;;;;;5036467;28;20198;-72
2023/09/26 07:05:45;;;;;;;10.50;3.00;;;19.10;99.90;;;;;;5035549;28;20595;-74
2023/09/26 07:08:15;;;;;;;10.45;2.20;;;19.10;99.90;;;;;;5052961;28;20653;-74
2023/09/26 07:10:46;;;;;;;8.45;2.20;;;19.10;99.90;;;;;;5055896;28;20185;-73
2023/09/26 07:13:19;;;;;;;8.88;2.33;;;19.10;99.90;;;;;;5056596;28;20205;-76
2023/09/26 07:15:59;;;;;;;9.15;2.33;;;19.10;99.90;;;;;;5055768;28;20223;-72
2023/09/26 07:18:30;;;;;;;11.15;2.67;;;19.10;99.90;;;;;;5052390;28;20204;-74
2023/09/26 07:21:04;;;;;;;14.35;2.35;;;19.10;99.90;;;;;;5039743;28;20271;-74
2023/09/26 07:23:36;;;;;;;10.13;2.20;;;19.00;99.90;;;;;;5038683;28;20189;-75
2023/09/26 07:26:16;;;;;;;11.15;2.67;;;19.00;99.90;;;;;;5047155;28;20201;-73
2023/09/26 07:28:49;;;;;;;9.27;2.40;;;19.00;99.90;;;;;;5043192;28;20197;-73
2023/09/26 07:31:21;;;;;;;11.57;2.88;;;19.00;99.90;;;;;;5034273;28;20187;-72
2023/09/26 07:33:53;;;;;;;12.13;2.83;;;18.90;99.90;;;;;;5041910;28;20197;-72
2023/09/26 07:36:24;;;;;;;9.27;2.65;;;18.90;99.90;;;;;;5041503;28;20229;-75
2023/09/26 07:38:55;;;;;;;11.40;2.30;;;18.90;99.90;;;;;;5040764;28;20212;-73
2023/09/26 07:41:25;;;;;;;12.70;2.20;;;18.90;99.90;;;;;;5041053;28;20229;-75
2023/09/26 07:43:58;;;;;;;9.30;2.30;;;18.80;99.90;;;;;;5035510;28;20190;-73
2023/09/26 07:46:29;;;;;;;9.32;2.22;;;18.80;99.90;;;;;;5035633;28;20185;-76
2023/09/26 07:49:00;;;;;;;15.05;2.53;;;18.80;99.90;;;;;;5038439;28;20537;-77
2023/09/26 07:51:31;;;;;;;11.57;2.65;;;18.60;99.90;;;;;;5054210;28;20201;-75
2023/09/26 07:54:01;;;;;;;11.55;2.50;;;18.70;99.90;;;;;;5054156;28;20189;-74
2023/09/26 07:56:32;;;;;;;13.20;2.95;;;18.70;99.90;;;;;;5053803;28;20189;-76
2023/09/26 07:59:05;;;;;;;7.20;2.10;;;18.70;99.90;;;;;;5041854;28;20280;-77
2023/09/26 08:01:36;;;;;;;11.45;2.50;;;18.70;99.90;;;;;;5043880;28;20229;-77
2023/09/26 08:04:07;;;;;;;9.35;2.40;;;18.60;99.90;;;;;;5044602;28;20190;-73
2023/09/26 08:06:38;;;;;;;9.88;2.60;;;18.60;99.90;;;;;;5035003;28;20226;-75
2023/09/26 08:09:09;;;;;;;8.60;2.10;;;18.60;99.90;;;;;;5053033;28;20699;-73
2023/09/26 08:11:42;;;;;;;9.13;2.28;;;18.60;99.90;;;;;;5051122;28;20194;-73
2023/09/26 08:14:14;;;;;;;11.02;2.47;;;18.60;99.90;;;;;;5036564;28;20208;-72
2023/09/26 08:16:47;;;;;;;10.68;2.42;;;18.60;99.90;;;;;;5036882;28;20446;-73
2023/09/26 08:19:17;;;;;;;11.43;2.60;;;18.60;99.90;;;;;;5045231;28;20190;-73
2023/09/26 08:21:51;;;;;;;9.65;2.50;;;18.50;99.90;;;;;;5043686;28;20575;-73
2023/09/26 08:24:22;;;;;;;9.93;2.83;;;18.50;99.90;;;;;;5041898;28;20217;-74
2023/09/26 08:26:53;;;;;;;9.38;2.50;;;18.50;99.90;;;;;;5037960;28;20206;-73
2023/09/26 08:29:25;;;;;;;7.35;2.00;;;18.50;99.90;;;;;;5044036;28;20194;-73
2023/09/26 08:31:56;;;;;;;10.88;2.50;;;18.40;99.90;;;;;;5040544;28;20237;-73
2023/09/26 08:34:27;;;;;;;11.13;2.35;;;18.40;99.90;;;;;;5033897;28;20198;-73
2023/09/26 08:36:58;;;;;;;11.65;2.80;;;18.40;99.90;;;;;;5036537;28;20197;-73
2023/09/26 08:39:28;;;;;;;9.98;2.53;;;18.40;99.90;;;;;;5038759;28;20560;-74
2023/09/26 08:42:01;;;;;;;13.55;2.70;;;18.40;99.90;;;;;;5034636;28;20218;-76
2023/09/26 08:44:34;;;;;;;9.00;2.47;;;18.40;99.90;;;;;;5031562;28;20206;-73
2023/09/26 08:47:05;;;;;;;6.75;2.40;;;18.40;99.90;;;;;;5038425;28;20197;-74
2023/09/26 08:49:38;;;;;;;10.32;2.90;;;18.40;99.90;;;;;;5039064;28;20202;-73
2023/09/26 08:52:09;;;;;;;12.45;2.30;;;18.40;99.90;;;;;;5044172;28;20199;-73
2023/09/26 08:54:40;;;;;;;7.03;2.10;;;18.40;99.90;;;;;;5048868;28;20198;-73
2023/09/26 08:57:11;;;;;;;8.27;2.40;;;18.40;99.90;;;;;;5034550;28;20744;-72
2023/09/26 08:59:45;;;;;;;9.75;2.85;;;18.40;99.90;;;;;;5037521;28;20688;-73
2023/09/26 09:02:16;;;;;;;13.70;2.97;;;18.40;99.90;;;;;;5039366;28;20229;-75
2023/09/26 09:04:48;;;;;;;8.60;2.42;;;18.40;99.90;;;;;;5044647;28;20217;-73
2023/09/26 09:07:18;;;;;;;8.35;2.60;;;18.40;99.90;;;;;;5044534;28;20229;-73
2023/09/26 09:10:06;;;;;;;9.07;2.67;;;18.50;99.90;;;;;;5052406;28;20194;-73
2023/09/26 09:12:40;;;;;;;10.82;2.70;;;18.50;99.90;;;;;;5048411;28;20206;-73
2023/09/26 09:15:30;;;;;;;9.57;2.55;;;18.50;99.90;;;;;;5038623;28;20200;-72
2023/09/26 09:18:01;;;;;;;9.57;2.67;;;18.50;99.90;;;;;;5047624;28;20253;-72
2023/09/26 09:20:33;;;;;;;11.30;2.42;;;18.50;99.90;;;;;;5050679;28;20197;-73
2023/09/26 09:23:06;;;;;;;14.05;3.40;;;18.50;99.90;;;;;;5033577;28;20705;-74
2023/09/26 09:25:38;;;;;;;9.60;2.72;;;18.40;99.90;;;;;;5034388;28;20204;-76
2023/09/26 09:28:09;;;;;;;7.35;2.50;;;18.30;99.90;;;;;;5036538;28;20560;-75
2023/09/26 09:30:46;;;;;;;11.93;2.72;;;18.30;99.90;;;;;;5044559;28;20202;-74
2023/09/26 09:33:17;;;;;;;12.00;2.97;;;18.30;99.90;;;;;;5035645;28;20206;-72
2023/09/26 09:35:48;;;;;;;10.48;3.03;;;18.20;99.90;;;;;;5042106;28;20197;-73
2023/09/26 09:38:21;;;;;;;9.45;2.63;;;18.10;99.90;;;;;;5039633;28;20201;-73
2023/09/26 09:40:52;;;;;;;11.65;2.70;;;18.10;99.90;;;;;;5036332;28;20198;-74
2023/09/26 09:43:22;;;;;;;9.80;2.45;;;18.00;99.90;;;;;;5051270;28;20217;-73
2023/09/26 09:46:00;;;;;;;8.80;2.70;;;18.00;99.90;;;;;;5033654;28;20197;-73
2023/09/26 09:48:38;;;;;;;8.80;2.50;;;18.00;99.90;;;;;;5032052;28;20194;-74
2023/09/26 09:51:10;;;;;;;7.60;2.85;;;18.00;99.90;;;;;;5041968;28;20193;-73
2023/09/26 09:53:42;;;;;;;12.35;2.83;;;18.00;99.90;;;;;;5046069;28;20193;-74
2023/09/26 09:56:18;;;;;;;9.73;2.90;;;17.90;99.90;;;;;;5033087;28;20191;-74
2023/09/26 09:58:53;;;;;;;6.03;2.53;;;17.90;99.90;;;;;;5033134;28;20196;-75
2023/09/26 10:01:26;;;;;;;8.43;2.60;;;17.90;99.90;;;;;;5041301;28;20189;-73
2023/09/26 10:03:58;;;;;;;9.52;2.72;;;18.00;99.90;;;;;;5052843;28;20242;-75
2023/09/26 10:06:28;;;;;;;9.23;2.55;;;18.00;99.90;;;;;;5040236;28;20229;-75
2023/09/26 10:09:00;;;;;;;8.77;2.90;;;18.00;99.90;;;;;;5033088;28;20201;-73
2023/09/26 10:11:31;;;;;;;11.80;2.90;;;18.00;99.90;;;;;;5048087;28;20194;-73
2023/09/26 10:14:01;;;;;;;8.15;2.88;;;18.00;99.90;;;;;;5044098;28;20201;-74
2023/09/26 10:16:34;;;;;;;12.82;3.00;;;18.00;99.90;;;;;;5049764;28;20185;-73
2023/09/26 10:19:05;;;;;;;9.40;3.45;;;18.00;99.90;;;;;;5056179;28;20213;-73
2023/09/26 10:21:36;;;;;;;9.80;3.55;;;18.00;99.90;;;;;;5048082;28;20689;-74
2023/09/26 10:24:29;;;;;;;8.77;2.95;;;17.90;99.90;;;;;;5043856;28;20232;-74
2023/09/26 10:27:09;;;;;;;9.63;3.08;;;17.90;99.90;;;;;;5027819;28;20207;-74
2023/09/26 10:29:41;;;;;;;11.32;3.28;;;17.80;99.90;;;;;;5036269;28;20198;-74
2023/09/26 10:32:23;;;;;;;11.35;3.60;;;17.80;99.90;;;;;;5036711;28;20256;-76
2023/09/26 10:34:54;;;;;;;8.75;3.10;;;17.80;99.90;;;;;;5044402;28;20198;-74
2023/09/26 10:37:27;;;;;;;8.75;3.25;;;17.80;99.90;;;;;;5045772;28;20194;-75
2023/09/26 10:39:58;;;;;;;10.05;3.60;;;17.80;99.90;;;;;;5036553;28;20202;-75
2023/09/26 10:42:29;;;;;;;10.70;3.60;;;17.80;99.90;;;;;;5036457;28;20705;-75
2023/09/26 10:45:00;;;;;;;10.02;3.67;;;17.80;99.90;;;;;;5036497;28;20201;-76
2023/09/26 10:47:36;;;;;;;11.15;3.25;;;17.80;99.90;;;;;;5036220;28;20197;-75
2023/09/26 10:50:08;;;;;;;8.70;3.10;;;17.80;99.90;;;;;;5043581;28;20205;-75
2023/09/26 10:52:41;;;;;;;8.40;2.97;;;17.70;99.90;;;;;;5053814;28;20186;-74
2023/09/26 10:55:14;;;;;;;13.55;3.40;;;17.80;99.90;;;;;;5036650;28;20193;-74
2023/09/26 10:57:46;;;;;;;8.23;2.90;;;17.80;99.90;;;;;;5040293;28;20561;-75
2023/09/26 11:00:17;;;;;;;12.50;3.13;;;17.80;99.90;;;;;;5045971;28;20331;-74
2023/09/26 11:02:51;;;;;;;8.10;3.38;;;17.80;99.90;;;;;;5055128;28;20228;-74
2023/09/26 11:05:21;;;;;;;8.60;2.90;;;17.80;99.90;;;;;;5050311;28;20634;-75
2023/09/26 11:07:55;;;;;;;12.63;4.00;;;17.80;99.90;;;;;;5018229;28;20199;-76
2023/09/26 11:10:25;;;;;;;11.73;3.38;;;17.80;99.90;;;;;;5021235;28;20277;-74
2023/09/26 11:12:56;;;;;;;8.73;3.30;;;17.80;99.90;;;;;;5016281;28;20234;-74
2023/09/26 11:15:29;;;;;;;7.00;3.33;;;17.70;99.90;;;;;;5016560;28;20718;-74
2023/09/26 11:18:02;;;;;;;13.02;3.90;;;17.80;99.90;;;;;;5014561;28;20202;-74
2023/09/26 11:20:34;;;;;;;11.50;4.00;;;17.80;99.90;;;;;;5015380;28;20195;-75
2023/09/26 11:23:04;;;;;;;9.45;3.72;;;17.70;99.90;;;;;;5033633;28;20237;-74
2023/09/26 11:25:36;;;;;;;12.18;3.75;;;17.80;99.90;;;;;;5034856;28;20309;-75
2023/09/26 11:28:07;;;;;;;9.98;3.58;;;17.70;99.90;;;;;;5025132;28;20223;-73
2023/09/26 11:30:38;;;;;;;7.93;3.78;;;17.70;99.90;;;;;;5016890;28;20194;-74
2023/09/26 11:33:11;;;;;;;7.50;3.60;;;17.70;99.90;;;;;;5027277;28;20276;-74
2023/09/26 11:35:42;;;;;;;11.02;4.25;;;17.70;99.90;;;;;;5014789;28;20209;-73
2023/09/26 11:38:13;;;;;;;10.13;3.58;;;17.70;99.90;;;;;;5017206;28;20210;-74
2023/09/26 11:40:44;;;;;;;10.20;3.38;;;17.70;99.90;;;;;;5019541;28;20194;-74
2023/09/26 11:43:15;;;;;;;9.25;3.20;;;17.70;99.90;;;;;;5016576;28;20225;-74
2023/09/26 11:45:46;;;;;;;11.13;3.30;;;17.60;99.90;;;;;;5013109;28;20221;-74
2023/09/26 11:48:20;;;;;;;5.75;2.95;;;17.60;99.90;;;;;;5015145;28;20202;-74
2023/09/26 11:50:51;;;;;;;7.60;2.80;;;17.60;99.90;;;;;;5014787;28;20182;-74
2023/09/26 11:53:25;;;;;;;8.25;3.05;;;17.60;99.90;;;;;;5027754;28;20217;-74
2023/09/26 11:55:56;;;;;;;6.95;3.00;;;17.60;99.90;;;;;;5021058;28;20199;-75
2023/09/26 11:58:27;;;;;;;13.27;4.03;;;17.60;99.90;;;;;;5034847;28;20205;-75
2023/09/26 12:00:58;;;;;;;10.10;3.58;;;17.70;99.90;;;;;;5034749;28;20196;-74
2023/09/26 12:03:31;;;;;;;12.77;3.60;;;17.70;99.90;;;;;;5025295;28;20211;-74
2023/09/26 12:06:01;;;;;;;8.15;3.08;;;17.70;99.90;;;;;;5019665;28;20241;-74
2023/09/26 12:08:32;;;;;;;13.90;4.00;;;17.70;99.90;;;;;;5038265;28;20209;-75
2023/09/26 12:11:03;;;;;;;10.77;3.58;;;17.70;99.90;;;;;;5049200;28;20564;-74
2023/09/26 12:13:35;;;;;;;11.45;3.15;;;17.70;99.90;;;;;;5037270;28;20563;-75
2023/09/26 12:16:06;;;;;;;11.82;3.67;;;17.70;99.90;;;;;;5048303;28;20196;-74
2023/09/26 12:18:39;;;;;;;11.88;4.10;;;17.70;99.90;;;;;;5054533;28;20645;-74
2023/09/26 12:21:10;;;;;;;8.95;3.25;;;17.70;99.90;;;;;;5053700;28;20200;-74
2023/09/26 12:23:41;;;;;;;9.32;3.00;;;17.70;99.90;;;;;;5039206;28;20253;-74
2023/09/26 12:26:11;;;;;;;9.23;3.05;;;17.70;99.90;;;;;;5034687;28;20195;-75
2023/09/26 12:28:42;;;;;;;10.27;3.38;;;17.70;99.90;;;;;;5038056;28;20257;-75
2023/09/26 12:31:13;;;;;;;10.15;3.20;;;17.50;99.90;;;;;;5034650;28;20236;-75
2023/09/26 12:33:46;;;;;;;7.35;3.30;;;17.70;99.90;;;;;;5039748;28;20194;-74
2023/09/26 12:36:16;;;;;;;7.80;2.80;;;17.60;99.90;;;;;;5047333;28;20206;-74
2023/09/26 12:38:47;;;;;;;9.00;3.20;;;17.70;99.90;;;;;;5050170;28;20186;-74
2023/09/26 12:41:18;;;;;;;8.32;3.33;;;17.60;99.90;;;;;;5041602;28;20563;-75
2023/09/26 12:43:49;;;;;;;8.00;2.83;;;17.70;99.90;;;;;;5041522;28;20216;-74
2023/09/26 12:46:19;;;;;;;8.98;3.10;;;17.70;99.90;;;;;;5042915;28;20209;-74
2023/09/26 12:48:52;;;;;;;9.80;3.20;;;17.70;99.90;;;;;;5035614;28;20202;-75
2023/09/26 12:51:23;;;;;;;7.30;3.00;;;17.60;99.90;;;;;;5045222;28;20583;-74
2023/09/26 12:53:53;;;;;;;8.77;3.03;;;17.60;99.90;;;;;;5053642;28;20193;-73
2023/09/26 12:56:24;;;;;;;10.07;3.10;;;17.60;99.90;;;;;;5053356;28;20630;-74
2023/09/26 12:58:55;;;;;;;12.93;3.75;;;17.60;99.90;;;;;;5053968;28;20186;-72
2023/09/26 13:01:26;;;;;;;12.02;3.85;;;17.60;99.90;;;;;;5038314;28;20655;-71
2023/09/26 13:03:59;;;;;;;14.02;5.00;;;17.50;99.90;;;;;;5045927;28;20217;-72